createdAt,value
2023-01-10T00:01:05.062Z,66.02
2023-01-10T00:03:37.070Z,66.06
2023-01-10T00:06:09.300Z,66.11
2023-01-10T00:08:41.551Z,66.31
2023-01-10T00:11:24.540Z,65.80
2023-01-10T00:13:57.641Z,65.60
2023-01-10T00:16:29.924Z,65.65
2023-01-10T00:19:02.045Z,65.70
2023-01-10T00:21:34.499Z,65.46
2023-01-10T00:24:08.640Z,65.41
2023-01-10T00:26:43.742Z,65.19
2023-01-10T00:29:15.810Z,65.28
2023-01-10T00:31:47.769Z,65.20
2023-01-10T00:34:20.178Z,64.88
2023-01-10T00:36:53.464Z,64.84
2023-01-10T00:39:27.494Z,65.01
2023-01-10T00:42:17.381Z,65.02
2023-01-10T00:44:49.510Z,65.11
2023-01-10T00:47:21.579Z,65.14
2023-01-10T00:49:53.638Z,65.27
2023-01-10T00:52:25.690Z,65.40
2023-01-10T00:54:58.326Z,65.49
2023-01-10T00:57:30.288Z,65.48
2023-01-10T01:00:03.279Z,65.65
2023-01-10T01:02:35.384Z,65.60
2023-01-10T01:05:08.099Z,65.39
2023-01-10T01:07:40.154Z,65.47
2023-01-10T01:10:27.444Z,65.50
2023-01-10T01:13:02.491Z,65.29
2023-01-10T01:15:38.233Z,65.36
2023-01-10T01:18:11.699Z,65.19
2023-01-10T01:20:45.927Z,64.63
2023-01-10T01:23:18.359Z,64.93
2023-01-10T01:25:54.458Z,64.88
2023-01-10T01:28:27.003Z,64.26
2023-01-10T01:30:58.983Z,64.48
2023-01-10T01:33:31.262Z,64.35
2023-01-10T01:36:03.367Z,64.41
2023-01-10T01:38:35.355Z,64.26
2023-01-10T01:41:09.797Z,64.43
2023-01-10T01:44:05.438Z,64.53
2023-01-10T01:46:40.288Z,64.63
2023-01-10T01:49:16.770Z,64.63
2023-01-10T01:51:51.381Z,64.64
2023-01-10T01:54:23.550Z,64.86
2023-01-10T01:56:58.518Z,65.06
2023-01-10T01:59:39.570Z,65.12
2023-01-10T02:02:20.428Z,65.18
2023-01-10T02:05:13.391Z,65.27
2023-01-10T02:07:48.976Z,65.43
2023-01-10T02:10:35.807Z,65.54
2023-01-10T02:13:10.295Z,65.46
2023-01-10T02:15:42.574Z,65.17
2023-01-10T02:18:15.787Z,65.14
2023-01-10T02:20:48.782Z,65.22
2023-01-10T02:23:32.412Z,64.95
2023-01-10T02:26:40.210Z,64.54
2023-01-10T02:29:28.834Z,64.16
2023-01-10T02:32:16.153Z,64.28
2023-01-10T02:35:26.987Z,63.86
2023-01-10T02:38:20.931Z,63.58
2023-01-10T02:41:29.019Z,63.76
2023-01-10T02:44:18.140Z,63.37
2023-01-10T02:46:50.968Z,62.78
2023-01-10T02:49:23.402Z,62.51
2023-01-10T02:51:55.964Z,62.74
2023-01-10T02:54:30.928Z,62.93
2023-01-10T02:57:17.759Z,63.16
2023-01-10T03:00:02.243Z,63.33
2023-01-10T03:02:46.970Z,63.47
2023-01-10T03:05:40.136Z,63.54
2023-01-10T03:08:21.231Z,63.65
2023-01-10T03:11:01.762Z,63.68
2023-01-10T03:13:48.640Z,63.71
2023-01-10T03:16:23.790Z,63.81
2023-01-10T03:19:04.542Z,63.90
2023-01-10T03:21:39.554Z,63.96
2023-01-10T03:24:20.226Z,64.05
2023-01-10T03:27:01.445Z,64.03
2023-01-10T03:29:40.181Z,64.05
2023-01-10T03:32:15.441Z,63.92
2023-01-10T03:34:47.932Z,63.79
2023-01-10T03:37:25.928Z,63.80
2023-01-10T03:40:10.324Z,63.64
2023-01-10T03:43:14.233Z,63.49
2023-01-10T03:45:51.898Z,63.63
2023-01-10T03:48:26.739Z,63.40
2023-01-10T03:51:01.813Z,63.52
2023-01-10T03:53:39.292Z,63.25
2023-01-10T03:56:16.486Z,63.57
2023-01-10T03:58:48.768Z,63.58
2023-01-10T04:01:21.250Z,63.61
2023-01-10T04:03:53.601Z,63.80
2023-01-10T04:06:25.725Z,63.95
2023-01-10T04:08:57.956Z,64.04
2023-01-10T04:11:30.350Z,64.26
2023-01-10T04:14:02.628Z,64.30
2023-01-10T04:16:35.008Z,64.36
2023-01-10T04:19:07.555Z,64.37
2023-01-10T04:21:40.099Z,64.39
2023-01-10T04:24:12.802Z,64.43
2023-01-10T04:26:45.016Z,64.42
2023-01-10T04:29:17.465Z,64.25
2023-01-10T04:31:50.275Z,64.18
2023-01-10T04:34:22.682Z,64.28
2023-01-10T04:36:55.178Z,64.01
2023-01-10T04:39:27.954Z,64.17
2023-01-10T04:42:00.876Z,64.17
2023-01-10T04:44:33.477Z,64.22
2023-01-10T04:47:05.615Z,64.25
2023-01-10T04:49:37.748Z,64.04
2023-01-10T04:52:09.790Z,64.18
2023-01-10T04:54:42.492Z,64.05
2023-01-10T04:57:16.722Z,64.09
2023-01-10T04:59:49.444Z,64.21
2023-01-10T05:02:21.737Z,64.19
2023-01-10T05:04:53.994Z,64.18
2023-01-10T05:07:27.552Z,64.40
2023-01-10T05:10:00.055Z,64.34
2023-01-10T05:12:32.832Z,64.41
2023-01-10T05:15:05.662Z,64.05
2023-01-10T05:17:38.093Z,64.18
2023-01-10T05:20:11.005Z,64.22
2023-01-10T05:22:43.238Z,64.35
2023-01-10T05:25:15.529Z,64.16
2023-01-10T05:27:47.727Z,64.00
2023-01-10T05:30:20.483Z,63.64
2023-01-10T05:32:52.810Z,63.84
2023-01-10T05:35:26.059Z,63.87
2023-01-10T05:37:58.519Z,63.70
2023-01-10T05:40:31.151Z,63.74
2023-01-10T05:43:03.266Z,63.79
2023-01-10T05:45:35.731Z,63.90
2023-01-10T05:48:08.893Z,63.77
2023-01-10T05:50:41.205Z,63.71
2023-01-10T05:53:14.999Z,63.56
2023-01-10T05:55:55.893Z,63.52
2023-01-10T05:58:29.596Z,63.61
2023-01-10T06:01:03.318Z,63.71
2023-01-10T06:03:36.638Z,63.87
2023-01-10T06:06:09.675Z,64.05
2023-01-10T06:08:41.838Z,64.11
2023-01-10T06:11:14.395Z,64.04
2023-01-10T06:13:48.213Z,64.11
2023-01-10T06:16:20.406Z,64.17
2023-01-10T06:18:52.638Z,64.13
2023-01-10T06:21:24.902Z,64.29
2023-01-10T06:23:58.049Z,64.30
2023-01-10T06:26:30.844Z,64.34
2023-01-10T06:29:03.249Z,64.39
2023-01-10T06:31:35.677Z,64.43
2023-01-10T06:34:07.879Z,64.41
2023-01-10T06:36:42.523Z,64.53
2023-01-10T06:39:15.108Z,64.48
2023-01-10T06:41:47.368Z,64.53
2023-01-10T06:44:19.363Z,64.69
2023-01-10T06:46:51.978Z,64.80
2023-01-10T06:49:25.514Z,64.96
2023-01-10T06:51:59.937Z,65.02
2023-01-10T06:54:32.519Z,65.11
2023-01-10T06:57:06.064Z,65.52
2023-01-10T06:59:38.708Z,65.33
2023-01-10T07:02:15.648Z,65.30
2023-01-10T07:04:49.777Z,65.39
2023-01-10T07:07:22.405Z,65.40
2023-01-10T07:09:54.978Z,65.56
2023-01-10T07:12:27.986Z,65.77
2023-01-10T07:15:01.429Z,65.89
2023-01-10T07:17:34.084Z,65.86
2023-01-10T07:20:07.604Z,65.93
2023-01-10T07:22:39.874Z,65.79
2023-01-10T07:25:13.740Z,65.83
2023-01-10T07:27:46.666Z,66.06
2023-01-10T07:30:19.463Z,66.12
2023-01-10T07:33:01.398Z,66.14
2023-01-10T07:35:34.020Z,66.22
2023-01-10T07:38:06.379Z,66.29
2023-01-10T07:40:39.141Z,66.38
2023-01-10T07:43:12.134Z,66.23
2023-01-10T07:45:45.754Z,66.08
2023-01-10T07:48:19.480Z,65.84
2023-01-10T07:50:53.721Z,65.66
2023-01-10T07:53:27.889Z,65.69
2023-01-10T07:56:04.207Z,65.64
2023-01-10T07:58:36.721Z,65.89
2023-01-10T08:01:09.284Z,66.02
2023-01-10T08:03:41.781Z,65.88
2023-01-10T08:06:16.631Z,65.81
2023-01-10T08:08:48.081Z,65.95
2023-01-10T08:11:20.282Z,66.09
2023-01-10T08:13:52.876Z,66.30
2023-01-10T08:16:25.010Z,66.47
2023-01-10T08:18:57.825Z,66.00
2023-01-10T08:21:29.917Z,66.19
2023-01-10T08:24:02.217Z,65.95
2023-01-10T08:26:34.849Z,65.90
2023-01-10T08:29:07.371Z,65.48
2023-01-10T08:31:41.023Z,65.84
2023-01-10T08:34:15.123Z,66.12
2023-01-10T08:36:47.628Z,66.23
2023-01-10T08:39:22.230Z,65.74
2023-01-10T08:41:55.038Z,65.76
2023-01-10T08:44:27.397Z,65.65
2023-01-10T08:47:00.136Z,65.01
2023-01-10T08:49:32.580Z,65.04
2023-01-10T08:52:06.469Z,64.86
2023-01-10T08:54:38.755Z,64.91
2023-01-10T08:57:11.053Z,64.97
2023-01-10T08:59:43.299Z,64.72
2023-01-10T09:02:15.936Z,64.69
2023-01-10T09:04:48.519Z,64.18
2023-01-10T09:07:20.510Z,63.75
2023-01-10T09:09:52.614Z,64.30
2023-01-10T09:12:42.542Z,64.20
2023-01-10T09:15:14.609Z,64.04
2023-01-10T09:17:46.990Z,63.78
2023-01-10T09:20:19.611Z,63.60
2023-01-10T09:22:52.098Z,63.83
2023-01-10T09:25:25.219Z,63.93
2023-01-10T09:28:02.253Z,63.85
2023-01-10T09:30:34.736Z,63.61
2023-01-10T09:33:08.847Z,63.54
2023-01-10T09:35:42.839Z,63.11
2023-01-10T09:38:19.140Z,62.64
2023-01-10T09:41:15.476Z,62.38
2023-01-10T09:43:59.249Z,62.56
2023-01-10T09:46:58.276Z,62.42
2023-01-10T09:49:41.863Z,62.06
2023-01-10T09:52:22.390Z,62.28
2023-01-10T09:54:56.965Z,62.34
2023-01-10T09:57:29.340Z,62.25
2023-01-10T10:00:02.800Z,61.93
2023-01-10T10:02:38.587Z,61.95
2023-01-10T10:05:16.291Z,62.23
2023-01-10T10:07:51.219Z,62.29
2023-01-10T10:10:26.417Z,62.33
2023-01-10T10:13:27.001Z,62.50
2023-01-10T10:16:11.303Z,62.66
2023-01-10T10:18:52.170Z,62.56
2023-01-10T10:21:45.183Z,62.01
2023-01-10T10:24:23.476Z,62.19
2023-01-10T10:27:02.412Z,62.17
2023-01-10T10:29:43.420Z,62.42
2023-01-10T10:32:30.525Z,62.66
2023-01-10T10:35:11.375Z,62.44
2023-01-10T10:37:46.536Z,62.22
2023-01-10T10:40:27.255Z,61.46
2023-01-10T10:43:02.238Z,60.56
2023-01-10T10:45:40.961Z,59.66
2023-01-10T10:48:19.306Z,59.50
2023-01-10T10:51:06.291Z,59.36
2023-01-10T10:53:39.104Z,58.82
2023-01-10T10:56:14.434Z,58.69
2023-01-10T10:58:49.429Z,58.38
2023-01-10T11:01:25.421Z,58.40
2023-01-10T11:04:11.721Z,58.26
2023-01-10T11:06:48.519Z,57.93
2023-01-10T11:09:31.651Z,58.49
2023-01-10T11:12:05.848Z,58.49
2023-01-10T11:14:49.991Z,58.56
2023-01-10T11:17:27.183Z,58.30
2023-01-10T11:20:04.494Z,58.39
2023-01-10T11:22:42.490Z,58.74
2023-01-10T11:25:18.001Z,59.20
2023-01-10T11:27:56.701Z,59.79
2023-01-10T11:30:32.111Z,60.24
2023-01-10T11:33:07.585Z,60.38
2023-01-10T11:35:42.092Z,60.72
2023-01-10T11:38:26.568Z,60.94
2023-01-10T11:41:07.669Z,61.21
2023-01-10T11:43:41.822Z,61.16
2023-01-10T11:46:23.202Z,61.21
2023-01-10T11:49:11.220Z,61.36
2023-01-10T11:51:46.150Z,61.51
2023-01-10T11:54:24.330Z,60.57
2023-01-10T11:57:11.482Z,60.64
2023-01-10T11:59:54.832Z,60.93
2023-01-10T12:02:33.404Z,61.25
2023-01-10T12:05:09.314Z,60.87
2023-01-10T12:08:06.588Z,60.75
2023-01-10T12:10:39.053Z,60.89
2023-01-10T12:13:18.353Z,61.07
2023-01-10T12:15:50.528Z,61.09
2023-01-10T12:18:22.817Z,61.27
2023-01-10T12:20:56.367Z,61.39
2023-01-10T12:23:29.247Z,61.04
2023-01-10T12:26:11.431Z,61.22
2023-01-10T12:28:37.838Z,60.46
2023-01-10T12:31:17.392Z,59.72
2023-01-10T12:34:01.217Z,60.25
2023-01-10T12:36:34.008Z,60.41
2023-01-10T12:39:13.114Z,60.87
2023-01-10T12:42:05.767Z,60.01
2023-01-10T12:44:41.574Z,60.36
2023-01-10T12:47:16.515Z,60.39
2023-01-10T12:49:54.613Z,60.74
2023-01-10T12:52:32.196Z,60.63
2023-01-10T12:55:04.921Z,60.87
2023-01-10T12:57:40.387Z,60.93
2023-01-10T13:00:18.476Z,61.18
2023-01-10T13:02:52.900Z,60.85
2023-01-10T13:05:28.826Z,61.03
2023-01-10T13:08:09.955Z,60.95
2023-01-10T13:10:44.941Z,61.04
2023-01-10T13:13:32.189Z,60.66
2023-01-10T13:16:35.609Z,60.82
2023-01-10T13:19:10.718Z,61.08
2023-01-10T13:21:44.456Z,61.11
2023-01-10T13:24:26.625Z,61.31
2023-01-10T13:27:04.179Z,61.39
2023-01-10T13:29:47.091Z,61.51
2023-01-10T13:32:25.019Z,61.79
2023-01-10T13:34:59.798Z,62.09
2023-01-10T13:37:39.251Z,61.95
2023-01-10T13:40:14.443Z,62.07
2023-01-10T13:43:04.470Z,62.00
2023-01-10T13:45:38.732Z,61.93
2023-01-10T13:48:27.233Z,62.18
2023-01-10T13:51:02.375Z,62.25
2023-01-10T13:53:37.622Z,62.17
2023-01-10T13:56:31.040Z,62.26
2023-01-10T13:59:23.952Z,61.85
2023-01-10T14:02:16.323Z,62.04
2023-01-10T14:04:51.964Z,62.13
2023-01-10T14:07:30.284Z,61.83
2023-01-10T14:10:08.925Z,62.04
2023-01-10T14:12:53.337Z,61.87
2023-01-10T14:15:34.857Z,61.92
2023-01-10T14:18:10.315Z,61.71
2023-01-10T14:20:44.184Z,61.90
2023-01-10T14:23:19.234Z,61.83
2023-01-10T14:25:56.680Z,62.10
2023-01-10T14:28:32.546Z,62.22
2023-01-10T14:31:10.969Z,62.33
2023-01-10T14:33:45.254Z,62.50
2023-01-10T14:36:20.232Z,62.56
2023-01-10T14:38:56.929Z,62.73
2023-01-10T14:41:32.296Z,62.86
2023-01-10T14:44:25.405Z,62.81
2023-01-10T14:46:59.127Z,62.81
2023-01-10T14:49:34.224Z,62.90
2023-01-10T14:52:20.692Z,62.70
2023-01-10T14:55:17.000Z,62.25
2023-01-10T14:58:00.170Z,62.28
2023-01-10T15:00:36.584Z,61.93
2023-01-10T15:03:10.453Z,61.99
2023-01-10T15:05:50.002Z,61.79
2023-01-10T15:08:25.472Z,61.54
2023-01-10T15:11:09.288Z,61.70
2023-01-10T15:13:44.277Z,61.65
2023-01-10T15:18:53.913Z,61.49
2023-01-10T15:21:26.693Z,61.43
2023-01-10T15:23:58.973Z,61.39
2023-01-10T15:26:33.878Z,61.50
2023-01-10T15:29:15.044Z,61.65
2023-01-10T15:31:47.784Z,61.62
2023-01-10T15:34:22.866Z,61.42
2023-01-10T15:36:58.029Z,61.50
2023-01-10T15:39:32.968Z,61.47
2023-01-10T15:42:10.368Z,61.69
2023-01-10T15:44:46.636Z,61.65
2023-01-10T15:47:44.705Z,61.64
2023-01-10T15:50:28.635Z,61.74
2023-01-10T15:53:01.437Z,61.72
2023-01-10T15:55:54.248Z,62.09
2023-01-10T15:58:37.121Z,61.46
2023-01-10T16:01:10.977Z,61.46
2023-01-10T16:03:57.229Z,61.62
2023-01-10T16:06:32.055Z,61.62
2023-01-10T16:09:09.498Z,61.42
2023-01-10T16:12:08.082Z,61.49
2023-01-10T16:14:40.300Z,61.57
2023-01-10T16:17:12.766Z,61.60
2023-01-10T16:19:44.852Z,61.46
2023-01-10T16:22:20.351Z,61.58
2023-01-10T16:24:53.005Z,61.59
2023-01-10T16:27:25.214Z,61.65
2023-01-10T16:29:57.539Z,61.71
2023-01-10T16:32:29.538Z,61.54
2023-01-10T16:35:02.753Z,61.60
2023-01-10T16:37:34.239Z,62.60
2023-01-10T16:40:14.892Z,62.30
2023-01-10T16:43:04.688Z,61.70
2023-01-10T16:45:36.823Z,61.48
2023-01-10T16:48:09.229Z,61.54
2023-01-10T16:50:42.528Z,61.42
2023-01-10T16:53:16.469Z,61.62
2023-01-10T16:55:50.856Z,61.97
2023-01-10T16:58:24.939Z,61.89
2023-01-10T17:00:59.131Z,61.89
2023-01-10T17:03:34.596Z,61.79
2023-01-10T17:06:06.964Z,61.79
2023-01-10T17:08:39.070Z,61.84
2023-01-10T17:11:22.779Z,61.92
2023-01-10T17:13:55.516Z,61.96
2023-01-10T17:16:27.459Z,62.00
2023-01-10T17:18:59.624Z,61.97
2023-01-10T17:21:32.061Z,62.06
2023-01-10T17:24:04.457Z,61.92
2023-01-10T17:26:36.694Z,62.10
2023-01-10T17:29:08.716Z,62.21
2023-01-10T17:31:40.924Z,62.49
2023-01-10T17:34:13.201Z,62.27
2023-01-10T17:36:45.391Z,62.17
2023-01-10T17:39:17.532Z,62.33
2023-01-10T17:41:49.617Z,62.35
2023-01-10T17:44:21.866Z,62.40
2023-01-10T17:46:55.543Z,62.07
2023-01-10T17:49:26.645Z,62.26
2023-01-10T17:51:58.919Z,62.29
2023-01-10T17:54:31.166Z,61.82
2023-01-10T17:57:04.370Z,61.59
2023-01-10T17:59:36.861Z,61.49
2023-01-10T18:02:12.031Z,61.69
2023-01-10T18:04:44.238Z,61.71
2023-01-10T18:07:16.159Z,61.79
2023-01-10T18:09:48.173Z,61.81
2023-01-10T18:12:20.210Z,61.97
2023-01-10T18:14:52.217Z,62.08
2023-01-10T18:17:24.129Z,62.30
2023-01-10T18:19:56.197Z,62.18
2023-01-10T18:22:46.334Z,62.19
2023-01-10T18:25:19.492Z,62.10
2023-01-10T18:27:52.456Z,61.96
2023-01-10T18:30:25.323Z,61.83
2023-01-10T18:32:57.519Z,61.84
2023-01-10T18:35:30.338Z,62.05
2023-01-10T18:38:02.308Z,62.04
2023-01-10T18:40:34.531Z,62.02
2023-01-10T18:43:06.650Z,62.14
2023-01-10T18:45:38.628Z,62.11
2023-01-10T18:48:11.392Z,62.08
2023-01-10T18:50:44.785Z,61.97
2023-01-10T18:53:17.017Z,62.12
2023-01-10T18:56:04.306Z,62.09
2023-01-10T18:58:38.989Z,61.86
2023-01-10T19:01:13.705Z,62.07
2023-01-10T19:03:46.821Z,61.98
2023-01-10T19:06:22.633Z,61.89
2023-01-10T19:08:55.364Z,62.11
2023-01-10T19:11:27.649Z,61.91
2023-01-10T19:13:59.782Z,61.97
2023-01-10T19:16:35.385Z,61.32
2023-01-10T19:19:11.607Z,61.38
2023-01-10T19:21:43.699Z,61.24
2023-01-10T19:24:31.918Z,61.35
2023-01-10T19:27:04.983Z,61.33
2023-01-10T19:29:37.443Z,61.31
2023-01-10T19:32:09.418Z,61.37
2023-01-10T19:34:41.513Z,61.34
2023-01-10T19:37:13.578Z,61.24
2023-01-10T19:39:45.589Z,61.36
2023-01-10T19:42:17.453Z,61.29
2023-01-10T19:44:49.455Z,61.33
2023-01-10T19:47:21.491Z,60.84
2023-01-10T19:49:53.252Z,61.01
2023-01-10T19:52:25.400Z,61.12
2023-01-10T19:54:57.179Z,60.54
2023-01-10T19:57:29.177Z,60.49
2023-01-10T20:00:01.139Z,60.53
2023-01-10T20:02:35.672Z,60.53
2023-01-10T20:05:07.877Z,60.39
2023-01-10T20:07:40.135Z,60.30
2023-01-10T20:10:12.404Z,60.11
2023-01-10T20:12:44.602Z,60.11
2023-01-10T20:15:17.109Z,60.04
2023-01-10T20:17:49.067Z,60.02
2023-01-10T20:20:21.026Z,60.02
2023-01-10T20:22:55.479Z,60.02
2023-01-10T20:25:28.079Z,59.67
2023-01-10T20:28:00.043Z,59.69
2023-01-10T20:30:32.372Z,59.69
2023-01-10T20:33:04.372Z,59.72
2023-01-10T20:35:36.434Z,59.39
2023-01-10T20:38:09.557Z,59.37
2023-01-10T20:40:44.583Z,59.10
2023-01-10T20:43:17.800Z,58.80
2023-01-10T20:45:49.907Z,58.90
2023-01-10T20:48:22.481Z,58.95
2023-01-10T20:50:54.710Z,58.70
2023-01-10T20:53:26.743Z,58.03
2023-01-10T20:56:03.610Z,57.45
2023-01-10T20:58:36.188Z,57.48
2023-01-10T21:01:09.509Z,57.70
2023-01-10T21:03:42.010Z,57.64
2023-01-10T21:06:15.065Z,57.72
2023-01-10T21:08:48.339Z,56.80
2023-01-10T21:11:21.945Z,56.81
2023-01-10T21:13:53.494Z,57.08
2023-01-10T21:16:25.810Z,57.42
2023-01-10T21:18:57.928Z,56.88
2023-01-10T21:21:30.070Z,56.92
2023-01-10T21:24:02.079Z,56.98
2023-01-10T21:26:34.188Z,56.02
2023-01-10T21:29:06.305Z,56.18
2023-01-10T21:31:38.608Z,56.20
2023-01-10T21:34:12.116Z,55.89
2023-01-10T21:36:44.104Z,56.10
2023-01-10T21:39:17.745Z,56.05
2023-01-10T21:42:06.269Z,55.48
2023-01-10T21:44:38.693Z,55.70
2023-01-10T21:47:10.632Z,55.03
2023-01-10T21:49:42.552Z,54.89
2023-01-10T21:52:15.020Z,54.42
2023-01-10T21:54:47.114Z,54.39
2023-01-10T21:57:20.636Z,54.44
2023-01-10T21:59:52.220Z,54.15
2023-01-10T22:02:27.285Z,54.90
2023-01-10T22:04:59.342Z,54.07
2023-01-10T22:07:32.899Z,53.55
2023-01-10T22:10:06.128Z,53.67
2023-01-10T22:12:38.200Z,53.75
2023-01-10T22:15:11.442Z,53.39
2023-01-10T22:17:43.672Z,53.66
2023-01-10T22:20:16.989Z,53.94
2023-01-10T22:22:49.328Z,53.87
2023-01-10T22:25:21.326Z,54.02
2023-01-10T22:27:53.621Z,54.19
2023-01-10T22:30:26.285Z,53.28
2023-01-10T22:32:59.206Z,53.58
2023-01-10T22:35:31.933Z,53.44
2023-01-10T22:38:04.097Z,52.97
2023-01-10T22:40:36.362Z,52.95
2023-01-10T22:43:08.261Z,53.46
2023-01-10T22:45:46.485Z,53.38
2023-01-10T22:48:18.554Z,53.43
2023-01-10T22:50:51.233Z,53.70
2023-01-10T22:53:23.287Z,53.84
2023-01-10T22:55:56.339Z,53.72
2023-01-10T22:58:28.713Z,53.27
2023-01-10T23:01:00.693Z,53.43
2023-01-10T23:03:33.050Z,53.30
2023-01-10T23:06:05.322Z,53.16
2023-01-10T23:08:39.704Z,53.51
2023-01-10T23:11:14.331Z,53.38
2023-01-10T23:13:47.402Z,53.38
2023-01-10T23:16:26.397Z,53.28
2023-01-10T23:19:02.256Z,52.81
2023-01-10T23:21:34.237Z,52.36
2023-01-10T23:24:07.102Z,52.20
2023-01-10T23:26:39.289Z,52.51
2023-01-10T23:29:10.996Z,52.60
2023-01-10T23:31:43.170Z,52.31
2023-01-10T23:34:15.044Z,52.39
2023-01-10T23:36:47.249Z,52.44
2023-01-10T23:39:19.154Z,52.48
2023-01-10T23:41:51.411Z,52.90
2023-01-10T23:44:23.513Z,52.92
2023-01-10T23:46:56.370Z,52.90
2023-01-10T23:49:28.328Z,53.00
2023-01-10T23:52:00.575Z,52.63
2023-01-10T23:54:32.559Z,52.65
2023-01-10T23:57:04.898Z,52.24
2023-01-10T23:59:37.248Z,52.52
